Time;durP1;ratioP1;P1;durP2;ratioP2;P2;SDS_P1;SDS_P2;PMS_P1;PMS_P2;Temp;Humidity;BMP_temperature;BMP_pressure;BME280_temperature;BME280_humidity;BME280_pressure;Samples;Min_cycle;Max_cycle;Signal;HPM_P1;HPM_P2
2023/01/06 00:00:21;;;;;;;63.30;32.83;;;10.10;99.90;;;;;;4922965;28;20385;-76
2023/01/06 00:02:47;;;;;;;63.75;32.75;;;10.10;99.90;;;;;;4938891;29;20458;-76
2023/01/06 00:05:13;;;;;;;69.72;34.35;;;10.10;99.90;;;;;;4939085;29;20407;-77
2023/01/06 00:07:39;;;;;;;69.97;35.38;;;10.10;99.90;;;;;;4937324;28;20562;-77
2023/01/06 00:10:06;;;;;;;70.63;35.58;;;10.10;99.90;;;;;;4939243;29;20058;-77
2023/01/06 00:12:32;;;;;;;62.15;33.63;;;10.10;99.90;;;;;;4938397;28;20460;-76
2023/01/06 00:14:58;;;;;;;68.78;35.53;;;10.20;99.90;;;;;;4956347;28;20047;-76
2023/01/06 00:17:24;;;;;;;75.40;36.22;;;10.10;99.90;;;;;;4938151;29;20403;-75
2023/01/06 00:19:50;;;;;;;69.57;35.90;;;10.20;99.90;;;;;;4922782;28;20504;-76
2023/01/06 00:22:16;;;;;;;64.63;35.72;;;10.20;99.90;;;;;;4937773;29;20055;-75
2023/01/06 00:24:42;;;;;;;65.30;34.45;;;10.20;99.90;;;;;;4938356;28;20055;-75
2023/01/06 00:27:08;;;;;;;60.00;34.42;;;10.20;99.90;;;;;;4938565;29;20059;-77
2023/01/06 00:29:34;;;;;;;62.97;34.35;;;10.30;99.90;;;;;;4949429;28;20070;-77
2023/01/06 00:32:01;;;;;;;64.55;35.35;;;10.30;99.90;;;;;;4938671;29;20054;-78
2023/01/06 00:34:27;;;;;;;62.13;34.13;;;10.30;99.90;;;;;;4939203;29;20055;-76
2023/01/06 00:36:53;;;;;;;60.63;33.28;;;10.30;99.90;;;;;;4937968;29;20403;-77
2023/01/06 00:39:18;;;;;;;57.85;33.20;;;10.30;99.90;;;;;;4921814;29;20055;-78
2023/01/06 00:42:02;;;;;;;62.67;33.38;;;10.30;99.90;;;;;;4938366;28;20070;-79
2023/01/06 00:44:29;;;;;;;61.55;33.25;;;10.30;99.90;;;;;;4953209;28;20059;-77
2023/01/06 00:46:55;;;;;;;58.63;33.38;;;10.30;99.90;;;;;;4938316;29;20051;-76
2023/01/06 00:49:21;;;;;;;55.85;31.90;;;10.30;99.90;;;;;;4938575;29;20505;-77
2023/01/06 00:51:47;;;;;;;53.72;30.75;;;10.30;99.90;;;;;;4938042;28;20051;-78
2023/01/06 00:54:13;;;;;;;49.50;30.70;;;10.30;99.90;;;;;;4937721;29;20047;-77
2023/01/06 00:56:45;;;;;;;54.60;30.70;;;10.30;99.90;;;;;;4938009;29;20078;-76
2023/01/06 00:59:16;;;;;;;52.30;29.85;;;10.30;99.90;;;;;;4941457;28;20054;-76
2023/01/06 01:01:43;;;;;;;44.00;27.70;;;10.30;99.90;;;;;;4925433;29;20058;-76
2023/01/06 01:04:09;;;;;;;43.53;28.13;;;10.30;99.90;;;;;;4937153;28;20433;-76
2023/01/06 01:06:36;;;;;;;42.70;25.30;;;10.30;99.90;;;;;;4938019;28;20408;-76
2023/01/06 01:09:03;;;;;;;40.97;25.25;;;10.30;99.90;;;;;;4942639;29;20051;-76
2023/01/06 01:14:15;;;;;;;38.17;24.42;;;10.30;99.90;;;;;;4937569;28;20063;-76
2023/01/06 01:16:41;;;;;;;35.67;22.67;;;10.30;99.90;;;;;;4950705;28;20175;-75
2023/01/06 01:19:07;;;;;;;34.05;22.50;;;10.30;99.90;;;;;;4940423;29;20138;-76
2023/01/06 01:21:33;;;;;;;37.85;22.30;;;10.30;99.90;;;;;;4922514;29;20043;-75
2023/01/06 01:23:59;;;;;;;37.83;22.83;;;10.30;99.90;;;;;;4953188;29;20061;-74
2023/01/06 01:26:25;;;;;;;36.78;21.33;;;10.30;99.90;;;;;;4924721;28;20050;-75
2023/01/06 01:28:50;;;;;;;32.47;21.08;;;10.30;99.90;;;;;;4954056;28;20055;-74
2023/01/06 01:31:16;;;;;;;33.67;19.77;;;10.30;99.90;;;;;;4942755;28;20444;-77
2023/01/06 01:33:42;;;;;;;35.55;19.75;;;10.30;99.90;;;;;;4936281;28;20498;-76
2023/01/06 01:36:10;;;;;;;31.80;19.83;;;10.30;99.90;;;;;;4921896;29;20040;-76
2023/01/06 01:38:36;;;;;;;29.48;17.63;;;10.30;99.90;;;;;;4936589;29;20131;-76
2023/01/06 01:41:03;;;;;;;28.27;17.38;;;10.30;99.90;;;;;;4922043;29;20135;-75
2023/01/06 01:43:48;;;;;;;29.40;18.20;;;10.30;99.90;;;;;;4931607;29;20059;-75
2023/01/06 01:46:40;;;;;;;27.45;17.90;;;10.30;99.90;;;;;;4925074;29;20094;-75
2023/01/06 01:49:16;;;;;;;26.77;16.33;;;10.20;99.90;;;;;;4945792;28;20129;-75
2023/01/06 01:51:45;;;;;;;26.05;16.45;;;10.20;99.90;;;;;;4937665;29;20069;-75
2023/01/06 01:54:21;;;;;;;25.67;16.73;;;10.30;99.90;;;;;;4936368;28;20051;-74
2023/01/06 01:56:53;;;;;;;25.38;16.63;;;10.20;99.90;;;;;;4937572;29;20178;-75
2023/01/06 01:59:22;;;;;;;23.90;16.45;;;10.20;99.90;;;;;;4937161;28;20078;-75
2023/01/06 02:01:49;;;;;;;21.73;14.93;;;10.20;99.90;;;;;;4937972;29;20503;-75
2023/01/06 02:04:17;;;;;;;23.33;16.20;;;10.20;99.90;;;;;;4936874;28;20066;-75
2023/01/06 02:07:30;;;;;;;26.58;16.73;;;10.20;99.90;;;;;;4937852;29;20063;-76
2023/01/06 02:10:11;;;;;;;24.80;15.95;;;10.20;99.90;;;;;;4946591;28;20050;-75
2023/01/06 02:12:38;;;;;;;22.75;15.40;;;10.20;99.90;;;;;;4949357;29;20093;-75
2023/01/06 02:15:14;;;;;;;23.20;15.60;;;10.20;99.90;;;;;;4928661;29;20066;-75
2023/01/06 02:17:39;;;;;;;22.23;15.15;;;10.20;99.90;;;;;;4948600;29;20110;-76
2023/01/06 02:20:40;;;;;;;21.80;14.48;;;10.10;99.90;;;;;;4939576;28;20127;-74
2023/01/06 02:23:46;;;;;;;20.20;14.05;;;10.20;99.90;;;;;;4939991;29;20468;-74
2023/01/06 02:26:44;;;;;;;20.85;12.90;;;10.20;99.90;;;;;;4940714;29;20047;-76
2023/01/06 02:29:13;;;;;;;21.48;12.65;;;10.10;99.90;;;;;;4935958;28;20066;-75
2023/01/06 02:32:05;;;;;;;20.25;12.13;;;10.20;99.90;;;;;;4957986;28;20048;-74
2023/01/06 02:34:57;;;;;;;19.15;11.38;;;10.20;99.90;;;;;;4929710;29;20047;-75
2023/01/06 02:37:54;;;;;;;18.42;11.55;;;10.20;99.90;;;;;;4954294;29;20047;-75
2023/01/06 02:40:55;;;;;;;17.05;11.07;;;10.20;99.90;;;;;;4940180;28;20170;-74
2023/01/06 02:43:35;;;;;;;16.00;10.35;;;10.20;99.90;;;;;;4917943;29;20134;-74
2023/01/06 02:46:17;;;;;;;17.42;10.80;;;10.20;99.90;;;;;;4939040;28;20043;-76
2023/01/06 02:49:07;;;;;;;17.48;10.43;;;10.20;99.90;;;;;;4946051;29;20054;-76
2023/01/06 02:51:38;;;;;;;16.63;10.48;;;10.20;99.90;;;;;;4941271;29;20051;-76
2023/01/06 02:54:39;;;;;;;15.15;10.75;;;10.20;99.90;;;;;;4939428;29;20083;-75
2023/01/06 02:57:13;;;;;;;17.23;10.43;;;10.20;99.90;;;;;;4916298;29;20082;-74
2023/01/06 02:59:51;;;;;;;15.95;10.68;;;10.20;99.90;;;;;;4942772;28;20055;-75
2023/01/06 03:02:18;;;;;;;19.88;11.80;;;10.20;99.90;;;;;;4935141;28;20488;-75
2023/01/06 03:04:48;;;;;;;15.57;10.77;;;10.20;99.90;;;;;;4952005;29;20122;-76
2023/01/06 03:07:16;;;;;;;15.85;10.88;;;10.20;99.90;;;;;;4938688;28;20050;-75
2023/01/06 03:09:43;;;;;;;14.07;9.77;;;10.10;99.90;;;;;;4939891;29;20055;-74
2023/01/06 03:12:39;;;;;;;17.42;10.65;;;10.10;99.90;;;;;;4939863;29;20051;-75
2023/01/06 03:15:06;;;;;;;16.65;9.88;;;10.20;99.90;;;;;;4939126;29;20066;-76
2023/01/06 03:17:31;;;;;;;15.75;10.38;;;10.20;99.90;;;;;;4939810;29;20047;-75
2023/01/06 03:19:57;;;;;;;15.48;10.77;;;10.20;99.90;;;;;;4926710;29;20050;-76
2023/01/06 03:22:24;;;;;;;21.10;11.32;;;10.20;99.90;;;;;;4922976;29;20101;-75
2023/01/06 03:24:50;;;;;;;18.42;11.50;;;10.20;99.90;;;;;;4939058;29;20059;-77
2023/01/06 03:27:21;;;;;;;14.80;11.18;;;10.20;99.90;;;;;;4939898;29;20051;-78
2023/01/06 03:29:47;;;;;;;13.45;9.30;;;10.20;99.90;;;;;;4939077;28;20055;-75
2023/01/06 03:32:27;;;;;;;16.67;12.20;;;10.20;99.90;;;;;;4938723;29;20051;-77
2023/01/06 03:35:15;;;;;;;17.63;12.50;;;10.20;99.90;;;;;;4939326;28;20054;-77
2023/01/06 03:37:52;;;;;;;20.27;14.32;;;10.20;99.90;;;;;;4955516;28;20081;-76
2023/01/06 03:40:31;;;;;;;21.02;15.50;;;10.20;99.90;;;;;;4938921;29;20110;-77
2023/01/06 03:43:23;;;;;;;22.27;16.70;;;10.20;99.90;;;;;;4937683;28;20138;-75
2023/01/06 03:45:55;;;;;;;23.40;17.77;;;10.10;99.90;;;;;;4945019;28;20054;-76
2023/01/06 03:49:09;;;;;;;22.70;19.52;;;10.10;99.90;;;;;;4937993;28;20069;-75
2023/01/06 03:51:55;;;;;;;25.23;20.20;;;10.10;99.90;;;;;;4922747;29;20448;-74
2023/01/06 03:54:39;;;;;;;24.77;20.02;;;10.10;99.90;;;;;;4938202;29;20371;-75
2023/01/06 03:57:20;;;;;;;24.25;20.95;;;10.10;99.90;;;;;;4938351;28;20456;-76
2023/01/06 04:00:11;;;;;;;25.00;21.00;;;10.10;99.90;;;;;;4939185;29;20063;-75
2023/01/06 04:02:39;;;;;;;26.55;19.77;;;10.10;99.90;;;;;;4917943;29;20069;-75
2023/01/06 04:05:10;;;;;;;26.95;20.15;;;10.20;99.90;;;;;;4939075;29;20055;-74
2023/01/06 04:07:37;;;;;;;26.15;21.60;;;10.20;99.90;;;;;;4937242;29;20062;-75
2023/01/06 04:10:04;;;;;;;21.40;19.08;;;10.10;99.90;;;;;;4938985;29;20083;-76
2023/01/06 04:12:38;;;;;;;22.05;17.60;;;10.10;99.90;;;;;;4938602;28;20069;-76
2023/01/06 04:15:07;;;;;;;20.10;17.67;;;10.20;99.90;;;;;;4943356;28;20050;-76
2023/01/06 04:17:34;;;;;;;19.85;17.67;;;10.10;99.90;;;;;;4943447;28;20563;-76
2023/01/06 04:19:59;;;;;;;18.45;16.23;;;10.10;99.90;;;;;;4922841;29;20075;-78
2023/01/06 04:22:25;;;;;;;20.30;17.48;;;10.20;99.90;;;;;;4945320;29;20094;-75
2023/01/06 04:24:51;;;;;;;18.30;15.68;;;10.20;99.90;;;;;;4937947;29;20048;-79
2023/01/06 04:27:17;;;;;;;19.20;15.02;;;10.10;99.90;;;;;;4948386;28;20380;-76
2023/01/06 04:29:42;;;;;;;19.60;15.07;;;10.20;99.90;;;;;;4955181;28;20177;-78
2023/01/06 04:32:08;;;;;;;20.88;15.55;;;10.20;99.90;;;;;;4933743;29;20070;-77
2023/01/06 04:34:34;;;;;;;18.35;14.95;;;10.10;99.90;;;;;;4938200;28;20058;-75
2023/01/06 04:36:59;;;;;;;18.70;14.23;;;10.20;99.90;;;;;;4937956;29;20157;-76
2023/01/06 04:39:25;;;;;;;16.60;13.73;;;10.10;99.90;;;;;;4938012;29;20481;-75
2023/01/06 04:41:51;;;;;;;16.75;13.65;;;10.10;99.90;;;;;;4954995;28;20537;-76
2023/01/06 04:44:16;;;;;;;15.73;12.55;;;10.10;99.90;;;;;;4935432;29;20142;-76
2023/01/06 04:46:42;;;;;;;17.13;12.15;;;10.20;99.90;;;;;;4937850;28;20077;-74
2023/01/06 04:49:08;;;;;;;13.85;10.85;;;10.20;99.90;;;;;;4945713;28;20046;-76
2023/01/06 04:51:34;;;;;;;16.38;12.52;;;10.20;99.90;;;;;;4953847;29;20058;-76
2023/01/06 04:53:59;;;;;;;14.48;11.65;;;10.10;99.90;;;;;;4936901;29;20373;-76
2023/01/06 04:56:25;;;;;;;16.08;11.50;;;10.10;99.90;;;;;;4922337;29;20113;-76
2023/01/06 04:58:55;;;;;;;15.05;11.65;;;10.20;99.90;;;;;;4950734;29;20055;-78
2023/01/06 05:01:22;;;;;;;12.25;10.93;;;10.10;99.90;;;;;;4938029;29;20520;-75
2023/01/06 05:03:48;;;;;;;12.52;10.32;;;10.10;99.90;;;;;;4953268;28;20047;-75
2023/01/06 05:06:15;;;;;;;12.15;9.50;;;10.10;99.90;;;;;;4949214;29;20054;-76
2023/01/06 05:08:42;;;;;;;11.82;8.73;;;10.10;99.90;;;;;;4933798;28;20087;-76
2023/01/06 05:11:11;;;;;;;11.00;8.70;;;10.20;99.90;;;;;;4937893;29;20168;-78
2023/01/06 05:13:37;;;;;;;10.73;8.13;;;10.20;99.90;;;;;;4937461;29;20051;-77
2023/01/06 05:16:33;;;;;;;10.27;7.63;;;10.20;99.90;;;;;;4937084;28;20114;-77
2023/01/06 05:18:59;;;;;;;9.50;7.30;;;10.20;99.90;;;;;;4951369;28;20073;-76
2023/01/06 05:21:27;;;;;;;11.13;7.20;;;10.20;99.90;;;;;;4937122;29;20087;-78
2023/01/06 05:23:54;;;;;;;10.90;7.18;;;10.20;99.90;;;;;;4936717;29;20526;-78
2023/01/06 05:26:23;;;;;;;9.50;6.47;;;10.20;99.90;;;;;;4924610;28;20070;-75
2023/01/06 05:28:49;;;;;;;8.43;6.22;;;10.20;99.90;;;;;;4937829;29;20043;-78
2023/01/06 05:31:15;;;;;;;9.80;6.40;;;10.20;99.90;;;;;;4937153;28;20051;-75
2023/01/06 05:33:41;;;;;;;7.07;5.47;;;10.20;99.90;;;;;;4954553;28;20177;-76
2023/01/06 05:36:10;;;;;;;9.30;6.00;;;10.20;99.90;;;;;;4922100;29;20051;-76
2023/01/06 05:38:36;;;;;;;10.85;6.40;;;10.20;99.90;;;;;;4935734;29;20134;-74
2023/01/06 05:41:02;;;;;;;9.05;6.32;;;10.20;99.90;;;;;;4939323;29;20134;-76
2023/01/06 05:43:28;;;;;;;9.38;6.00;;;10.20;99.90;;;;;;4909159;29;20572;-75
2023/01/06 05:45:54;;;;;;;10.95;6.80;;;10.20;99.90;;;;;;4933397;28;20404;-78
2023/01/06 05:48:24;;;;;;;9.43;6.20;;;10.20;99.90;;;;;;4936783;28;20134;-75
2023/01/06 05:50:50;;;;;;;9.30;5.80;;;10.20;99.90;;;;;;4939891;28;20047;-75
2023/01/06 05:53:16;;;;;;;9.35;5.95;;;10.20;99.90;;;;;;4909436;28;20040;-76
2023/01/06 05:55:42;;;;;;;10.10;6.30;;;10.20;99.90;;;;;;4969171;28;20056;-75
2023/01/06 05:58:08;;;;;;;11.10;5.85;;;10.20;99.90;;;;;;4942749;29;20043;-77
2023/01/06 06:00:33;;;;;;;8.77;5.70;;;10.20;99.90;;;;;;4941431;29;20050;-78
2023/01/06 06:02:59;;;;;;;9.85;6.07;;;10.20;99.90;;;;;;4920780;29;20508;-77
2023/01/06 06:05:25;;;;;;;11.57;6.18;;;10.30;99.90;;;;;;4925098;28;20039;-76
2023/01/06 06:07:54;;;;;;;10.77;5.97;;;10.20;99.90;;;;;;4958587;28;20047;-77
2023/01/06 06:10:21;;;;;;;10.88;6.20;;;10.20;99.90;;;;;;4960897;28;20063;-74
2023/01/06 06:12:47;;;;;;;9.43;5.65;;;10.20;99.90;;;;;;4941077;29;20091;-78
2023/01/06 06:15:13;;;;;;;11.65;5.72;;;10.20;99.90;;;;;;4925360;29;20522;-75
2023/01/06 06:17:38;;;;;;;9.75;5.53;;;10.20;99.90;;;;;;4942775;28;20039;-75
2023/01/06 06:20:05;;;;;;;7.82;5.18;;;10.20;99.90;;;;;;4928599;28;20111;-76
2023/01/06 06:22:30;;;;;;;8.55;5.43;;;10.20;99.90;;;;;;4928454;29;20481;-75
2023/01/06 06:24:56;;;;;;;10.07;5.50;;;10.20;99.90;;;;;;4942298;28;20062;-74
2023/01/06 06:27:22;;;;;;;10.18;5.18;;;10.20;99.90;;;;;;4947689;28;20523;-76
2023/01/06 06:29:47;;;;;;;8.52;4.40;;;10.20;99.90;;;;;;4954107;28;20632;-79
2023/01/06 06:32:13;;;;;;;7.47;4.50;;;10.30;99.90;;;;;;4956366;28;20093;-76
2023/01/06 06:34:39;;;;;;;8.00;4.68;;;10.30;99.90;;;;;;4946786;28;20399;-75
2023/01/06 06:37:05;;;;;;;7.47;4.80;;;10.30;99.90;;;;;;4939800;29;20102;-75
2023/01/06 06:39:30;;;;;;;11.23;5.20;;;10.30;99.90;;;;;;4949822;28;20476;-75
2023/01/06 06:41:56;;;;;;;8.05;4.43;;;10.20;99.90;;;;;;4949102;29;20047;-76
2023/01/06 06:44:22;;;;;;;8.98;4.75;;;10.20;99.90;;;;;;4957478;28;20059;-76
2023/01/06 06:46:48;;;;;;;8.55;4.70;;;10.10;99.90;;;;;;4939697;28;20043;-75
2023/01/06 06:49:13;;;;;;;9.10;5.00;;;10.10;99.90;;;;;;4943644;28;20049;-75
2023/01/06 06:51:39;;;;;;;7.32;4.38;;;9.90;99.90;;;;;;4941070;28;20236;-75
2023/01/06 06:54:05;;;;;;;8.32;5.10;;;10.20;99.90;;;;;;4937208;29;20480;-75
2023/01/06 06:56:30;;;;;;;8.85;5.13;;;10.20;99.90;;;;;;4938472;29;20051;-77
2023/01/06 06:58:56;;;;;;;9.52;5.40;;;10.20;99.90;;;;;;4937620;28;20043;-75
2023/01/06 07:01:22;;;;;;;8.95;5.80;;;10.10;99.90;;;;;;4938567;29;20047;-74
2023/01/06 07:03:48;;;;;;;10.13;5.50;;;10.10;99.90;;;;;;4931288;28;20104;-75
2023/01/06 07:06:19;;;;;;;9.80;6.30;;;10.10;99.90;;;;;;4919938;29;20138;-76
2023/01/06 07:08:46;;;;;;;9.55;6.47;;;10.00;99.90;;;;;;4936248;28;20055;-75
2023/01/06 07:11:12;;;;;;;11.40;7.15;;;10.00;99.90;;;;;;4937617;29;20087;-75
2023/01/06 07:13:37;;;;;;;11.93;6.97;;;9.90;99.90;;;;;;4934076;29;20081;-75
2023/01/06 07:16:04;;;;;;;10.23;7.07;;;9.90;99.90;;;;;;4937097;28;20043;-75
2023/01/06 07:18:29;;;;;;;12.10;7.38;;;9.90;99.90;;;;;;4920985;29;20047;-75
2023/01/06 07:20:55;;;;;;;10.68;7.57;;;9.90;99.90;;;;;;4937370;29;20051;-76
2023/01/06 07:23:22;;;;;;;13.70;7.70;;;9.80;99.90;;;;;;4953748;28;20078;-76
2023/01/06 07:25:52;;;;;;;14.77;7.90;;;9.80;99.90;;;;;;4956648;28;20186;-76
2023/01/06 07:28:17;;;;;;;10.63;7.82;;;9.80;99.90;;;;;;4920139;29;20059;-76
2023/01/06 07:30:43;;;;;;;11.55;7.75;;;9.80;99.90;;;;;;4939813;29;20051;-75
2023/01/06 07:33:09;;;;;;;16.05;8.60;;;9.80;99.90;;;;;;4922976;28;20400;-76
2023/01/06 07:35:35;;;;;;;10.98;8.15;;;9.80;99.90;;;;;;4939691;29;20142;-75
2023/01/06 07:38:02;;;;;;;10.95;7.57;;;9.80;99.90;;;;;;4937637;28;20091;-76
2023/01/06 07:40:28;;;;;;;13.00;8.02;;;9.80;99.90;;;;;;4939850;29;20055;-75
2023/01/06 07:42:54;;;;;;;13.65;8.57;;;9.80;99.90;;;;;;4954998;28;20063;-80
2023/01/06 07:45:21;;;;;;;12.45;8.00;;;9.90;99.90;;;;;;4934373;28;20156;-75
2023/01/06 07:47:46;;;;;;;11.85;9.00;;;9.90;99.90;;;;;;4935417;29;20059;-74
2023/01/06 07:50:12;;;;;;;13.73;9.10;;;9.90;99.90;;;;;;4943050;28;20046;-75
2023/01/06 07:52:38;;;;;;;13.68;9.68;;;9.90;99.90;;;;;;4933199;29;20059;-75
2023/01/06 07:55:04;;;;;;;11.88;9.18;;;9.90;99.90;;;;;;4951811;28;20055;-76
2023/01/06 07:57:29;;;;;;;11.65;9.48;;;9.90;99.90;;;;;;4932600;29;20134;-75
2023/01/06 07:59:55;;;;;;;11.95;9.20;;;9.90;99.90;;;;;;4941163;29;20130;-77
2023/01/06 08:02:22;;;;;;;12.25;10.00;;;10.00;99.90;;;;;;4938305;29;20480;-77
2023/01/06 08:04:48;;;;;;;10.57;8.80;;;9.90;99.90;;;;;;4939366;29;20055;-75
2023/01/06 08:07:15;;;;;;;13.18;10.20;;;9.90;99.90;;;;;;4937479;28;20139;-76
2023/01/06 08:09:41;;;;;;;14.55;9.93;;;10.00;99.90;;;;;;4938828;29;20055;-77
2023/01/06 08:12:07;;;;;;;11.75;9.10;;;9.90;99.90;;;;;;4938579;28;20051;-76
2023/01/06 08:14:33;;;;;;;11.95;10.07;;;10.00;99.90;;;;;;4939080;29;20130;-76
2023/01/06 08:16:58;;;;;;;12.65;10.20;;;10.00;99.90;;;;;;4958944;28;20476;-76
2023/01/06 08:19:24;;;;;;;11.75;10.00;;;10.00;99.90;;;;;;4955124;28;20484;-77
2023/01/06 08:21:50;;;;;;;10.57;8.55;;;10.00;99.90;;;;;;4938774;29;20499;-75
2023/01/06 08:24:16;;;;;;;10.65;8.30;;;10.00;99.90;;;;;;4950547;28;20109;-76
2023/01/06 08:26:41;;;;;;;9.35;7.93;;;10.00;99.90;;;;;;4938558;29;20055;-76
2023/01/06 08:29:07;;;;;;;10.05;8.18;;;10.10;99.90;;;;;;4949149;28;20051;-76
2023/01/06 08:31:33;;;;;;;9.77;7.47;;;10.10;99.90;;;;;;4953919;29;20047;-74
2023/01/06 08:33:59;;;;;;;9.68;7.10;;;10.10;99.90;;;;;;4955385;28;20066;-75
2023/01/06 08:36:26;;;;;;;10.70;6.50;;;10.10;99.90;;;;;;4943822;28;20047;-73
2023/01/06 08:38:52;;;;;;;8.07;6.20;;;10.10;99.90;;;;;;4949398;29;20055;-75
2023/01/06 08:41:18;;;;;;;7.43;4.50;;;10.00;99.90;;;;;;4955748;28;20059;-75
2023/01/06 08:43:45;;;;;;;7.65;4.10;;;10.00;99.90;;;;;;4932166;29;20413;-76
2023/01/06 08:46:14;;;;;;;5.90;2.50;;;10.00;99.90;;;;;;4930382;29;20071;-76
2023/01/06 08:48:41;;;;;;;7.43;2.75;;;10.00;99.90;;;;;;4937293;29;20563;-77
2023/01/06 08:51:16;;;;;;;6.28;2.47;;;10.00;99.90;;;;;;4947430;29;20504;-76
2023/01/06 08:53:42;;;;;;;5.35;2.00;;;9.90;99.90;;;;;;4950151;28;20049;-76
2023/01/06 08:56:17;;;;;;;5.47;2.00;;;9.80;99.90;;;;;;4948578;29;20135;-77
2023/01/06 08:58:44;;;;;;;6.13;1.90;;;9.80;99.90;;;;;;4936218;28;20073;-75
2023/01/06 09:01:21;;;;;;;5.38;1.65;;;9.80;99.90;;;;;;4943558;29;20451;-75
2023/01/06 09:03:47;;;;;;;6.82;1.52;;;9.90;99.90;;;;;;4940813;28;20089;-75
2023/01/06 09:06:13;;;;;;;5.00;1.40;;;9.90;99.90;;;;;;4938105;29;20491;-74
2023/01/06 09:08:39;;;;;;;5.38;1.42;;;10.00;99.90;;;;;;4936938;28;20055;-74
2023/01/06 09:11:07;;;;;;;6.13;1.40;;;10.00;99.90;;;;;;4938215;29;20506;-74
2023/01/06 09:13:33;;;;;;;7.00;1.50;;;10.10;99.90;;;;;;4937768;29;20456;-75
2023/01/06 09:15:59;;;;;;;4.50;1.35;;;10.10;99.90;;;;;;4937375;28;20110;-76
2023/01/06 09:18:25;;;;;;;6.25;1.52;;;10.10;99.90;;;;;;4921628;29;20043;-76
2023/01/06 09:20:50;;;;;;;6.68;1.42;;;10.10;99.90;;;;;;4918829;29;20075;-75
2023/01/06 09:23:16;;;;;;;5.10;1.33;;;10.20;99.90;;;;;;4936354;29;20043;-75
2023/01/06 09:25:42;;;;;;;7.25;1.30;;;10.30;99.90;;;;;;4927190;29;20052;-76
2023/01/06 09:28:09;;;;;;;6.05;1.42;;;10.30;99.90;;;;;;4950760;28;20047;-76
2023/01/06 09:30:35;;;;;;;6.90;1.50;;;10.30;99.90;;;;;;4921913;29;20058;-76
2023/01/06 09:33:01;;;;;;;6.65;1.33;;;10.40;99.90;;;;;;4938147;28;20483;-75
2023/01/06 09:35:26;;;;;;;5.18;1.30;;;10.40;99.90;;;;;;4956614;28;20102;-75
2023/01/06 09:37:52;;;;;;;6.15;1.25;;;10.30;99.90;;;;;;4942927;29;20098;-76
2023/01/06 09:40:21;;;;;;;5.75;1.20;;;10.40;99.90;;;;;;4954269;28;20050;-76
2023/01/06 09:43:11;;;;;;;5.90;1.27;;;10.40;99.90;;;;;;4936712;28;20062;-74
2023/01/06 09:45:50;;;;;;;6.10;1.23;;;10.40;99.90;;;;;;4925947;29;20055;-75
2023/01/06 09:48:22;;;;;;;7.22;1.38;;;10.40;99.90;;;;;;4936893;28;20059;-76
2023/01/06 09:50:54;;;;;;;9.45;1.35;;;10.40;99.90;;;;;;4941572;29;20058;-76
2023/01/06 09:53:24;;;;;;;8.05;1.60;;;10.30;99.90;;;;;;4954555;28;20054;-75
2023/01/06 09:56:04;;;;;;;7.28;1.27;;;10.20;99.90;;;;;;4948626;29;20058;-74
2023/01/06 09:58:42;;;;;;;6.65;1.23;;;10.20;99.90;;;;;;4920365;28;20052;-74
2023/01/06 10:01:14;;;;;;;5.82;1.30;;;10.20;99.90;;;;;;4921903;29;20051;-75
2023/01/06 10:03:40;;;;;;;7.43;1.45;;;10.30;99.90;;;;;;4920755;28;20051;-74
2023/01/06 10:06:43;;;;;;;6.85;1.50;;;10.30;99.90;;;;;;4936863;29;20388;-75
2023/01/06 10:09:12;;;;;;;6.97;1.40;;;10.30;99.90;;;;;;4936047;29;20051;-74
2023/01/06 10:11:59;;;;;;;10.60;1.55;;;10.40;99.90;;;;;;4954571;28;20484;-74
2023/01/06 10:14:43;;;;;;;6.45;1.40;;;10.40;99.90;;;;;;4939316;29;20050;-75
2023/01/06 10:17:15;;;;;;;10.80;1.73;;;10.30;99.90;;;;;;4945752;29;20059;-74
2023/01/06 10:20:05;;;;;;;8.23;1.40;;;10.30;99.90;;;;;;4940180;28;20054;-75
2023/01/06 10:22:53;;;;;;;8.93;1.30;;;10.30;99.90;;;;;;4942840;29;20138;-75
2023/01/06 10:25:21;;;;;;;7.03;1.50;;;10.40;99.90;;;;;;4954507;28;20476;-74
2023/01/06 10:27:52;;;;;;;11.23;1.98;;;10.40;99.90;;;;;;4939486;28;20042;-74
2023/01/06 10:30:40;;;;;;;9.60;1.52;;;10.40;99.90;;;;;;4930458;29;20094;-73
2023/01/06 10:33:06;;;;;;;9.10;1.60;;;10.40;99.90;;;;;;4946250;28;20106;-73
2023/01/06 10:35:32;;;;;;;9.35;1.50;;;10.40;99.90;;;;;;4945536;29;20051;-74
2023/01/06 10:38:04;;;;;;;9.85;1.55;;;10.40;99.90;;;;;;4935968;28;20043;-74
2023/01/06 10:40:32;;;;;;;8.23;1.50;;;10.30;99.90;;;;;;4937801;29;20419;-73
2023/01/06 10:43:05;;;;;;;9.75;1.58;;;10.30;99.90;;;;;;4922909;28;20090;-74
2023/01/06 10:45:47;;;;;;;10.02;1.85;;;10.30;99.90;;;;;;4954555;28;20061;-74
2023/01/06 10:48:16;;;;;;;12.82;1.80;;;10.30;99.90;;;;;;4940199;28;20488;-74
2023/01/06 10:50:42;;;;;;;11.75;1.80;;;10.30;99.90;;;;;;4954937;29;20134;-75
2023/01/06 10:53:13;;;;;;;10.82;1.90;;;10.30;99.90;;;;;;4956642;28;20051;-75
2023/01/06 10:55:46;;;;;;;11.35;1.80;;;10.30;99.90;;;;;;4957274;28;20087;-74
2023/01/06 10:58:41;;;;;;;8.75;1.60;;;10.30;99.90;;;;;;4948494;29;20051;-75
2023/01/06 11:01:15;;;;;;;9.43;1.40;;;10.40;99.90;;;;;;4924381;29;20094;-75
2023/01/06 11:03:44;;;;;;;12.07;1.77;;;10.30;99.90;;;;;;4928000;28;20059;-74
2023/01/06 11:06:25;;;;;;;11.93;2.15;;;10.30;99.90;;;;;;4940182;29;20078;-75
2023/01/06 11:08:51;;;;;;;10.57;1.60;;;10.20;99.90;;;;;;4955468;28;20168;-74
2023/01/06 11:11:18;;;;;;;10.00;1.90;;;10.20;99.90;;;;;;4959281;28;20075;-75
2023/01/06 11:13:54;;;;;;;10.30;1.55;;;10.10;99.90;;;;;;4929469;28;20059;-74
2023/01/06 11:16:24;;;;;;;8.95;1.65;;;10.10;99.90;;;;;;4952101;29;20053;-75
2023/01/06 11:18:56;;;;;;;10.57;1.70;;;10.10;99.90;;;;;;4956701;28;20169;-75
2023/01/06 11:21:21;;;;;;;9.80;1.77;;;10.10;99.90;;;;;;4939596;29;20055;-76
2023/01/06 11:23:48;;;;;;;9.98;1.90;;;10.10;99.90;;;;;;4948867;29;20102;-75
2023/01/06 11:26:20;;;;;;;8.35;1.70;;;10.10;99.90;;;;;;4952827;28;20058;-75
2023/01/06 11:28:53;;;;;;;11.30;1.63;;;10.10;99.90;;;;;;4950899;29;20082;-75
2023/01/06 11:31:27;;;;;;;11.18;1.83;;;10.20;99.90;;;;;;4923512;28;20055;-76
2023/01/06 11:34:02;;;;;;;9.18;1.60;;;10.20;99.90;;;;;;4939076;29;20110;-75
2023/01/06 11:36:31;;;;;;;7.88;1.55;;;10.20;99.90;;;;;;4957737;28;20054;-75
2023/01/06 11:39:03;;;;;;;10.68;1.70;;;10.20;99.90;;;;;;4949906;29;20459;-75
2023/01/06 11:41:39;;;;;;;;;;;10.20;99.90;;;;;;4939573;28;20139;-75
2023/01/06 11:44:28;;;;;;;11.32;1.63;;;10.20;99.90;;;;;;4950728;29;19922;-76
2023/01/06 11:47:21;;;;;;;9.70;1.73;;;10.20;99.90;;;;;;4911646;29;20047;-77
2023/01/06 11:49:48;;;;;;;8.98;1.67;;;10.20;99.90;;;;;;4936433;29;20054;-74
2023/01/06 11:52:22;;;;;;;11.65;1.67;;;10.10;99.90;;;;;;4934282;29;20071;-75
2023/01/06 11:55:01;;;;;;;9.60;1.70;;;10.20;99.90;;;;;;4937259;29;20191;-76
2023/01/06 11:57:27;;;;;;;9.88;1.83;;;10.20;99.90;;;;;;4936753;29;20063;-76
2023/01/06 12:00:10;;;;;;;11.18;1.77;;;10.20;99.90;;;;;;4936012;29;20056;-76
2023/01/06 12:03:07;;;;;;;10.73;1.85;;;10.20;99.90;;;;;;4924093;29;20398;-76
2023/01/06 12:05:36;;;;;;;11.52;1.95;;;10.20;99.90;;;;;;4901756;29;20467;-74
2023/01/06 12:08:14;;;;;;;9.77;1.70;;;10.20;99.90;;;;;;4944895;29;20055;-76
2023/01/06 12:10:44;;;;;;;13.15;2.03;;;10.20;99.90;;;;;;4935073;29;20047;-75
2023/01/06 12:13:13;;;;;;;10.55;1.83;;;10.20;99.90;;;;;;4935740;29;20056;-78
2023/01/06 12:15:43;;;;;;;12.10;1.90;;;10.10;99.90;;;;;;4935446;29;20052;-75
2023/01/06 12:18:17;;;;;;;8.80;1.73;;;10.10;99.90;;;;;;4935042;29;20043;-76
2023/01/06 12:20:46;;;;;;;13.02;2.10;;;10.10;99.90;;;;;;4935762;29;20052;-76
2023/01/06 12:23:21;;;;;;;11.55;1.90;;;10.10;99.90;;;;;;4934649;29;20087;-76
2023/01/06 12:25:49;;;;;;;8.88;1.75;;;10.10;99.90;;;;;;4935647;29;20138;-75
2023/01/06 12:28:24;;;;;;;7.10;1.70;;;10.10;99.90;;;;;;4934689;29;20048;-74
2023/01/06 12:31:15;;;;;;;10.52;1.73;;;10.10;99.90;;;;;;4936555;29;20069;-75
2023/01/06 12:33:50;;;;;;;9.73;1.90;;;10.10;99.90;;;;;;4922865;29;20047;-75
2023/01/06 12:36:19;;;;;;;8.63;1.67;;;10.00;99.90;;;;;;4935083;29;20047;-75
2023/01/06 12:38:56;;;;;;;10.65;1.75;;;10.00;99.90;;;;;;4917893;29;20058;-76
2023/01/06 12:41:36;;;;;;;9.20;1.95;;;9.90;99.90;;;;;;4934499;29;20051;-76
2023/01/06 12:44:02;;;;;;;9.57;1.70;;;10.00;99.90;;;;;;4930648;29;20125;-75
2023/01/06 12:46:38;;;;;;;11.30;1.95;;;9.90;99.90;;;;;;4934625;29;20056;-75
2023/01/06 12:49:16;;;;;;;10.80;1.70;;;9.90;99.90;;;;;;4934682;29;20098;-75
2023/01/06 12:51:47;;;;;;;7.97;1.63;;;9.90;99.90;;;;;;4934658;29;20395;-78
2023/01/06 12:54:29;;;;;;;10.80;1.80;;;10.00;99.90;;;;;;4923626;29;20083;-76
2023/01/06 12:57:00;;;;;;;10.15;1.80;;;9.90;99.90;;;;;;4934898;29;20131;-76
2023/01/06 12:59:34;;;;;;;9.77;1.63;;;9.90;99.90;;;;;;4934691;29;20062;-77